Time;durP1;ratioP1;P1;durP2;ratioP2;P2;SDS_P1;SDS_P2;PMS_P1;PMS_P2;Temp;Humidity;BMP_temperature;BMP_pressure;BME280_temperature;BME280_humidity;BME280_pressure;Samples;Min_cycle;Max_cycle;Signal;HPM_P1;HPM_P2
2022/10/03 00:00:04;;;;;;;6.80;1.90;;;;;;;6.63;100.00;97971.78;1698669;84;21164;-76
2022/10/03 00:03:02;;;;;;;2.67;1.75;;;;;;;6.64;100.00;97971.31;1698646;84;21337;-78
2022/10/03 00:05:45;;;;;;;;;;;;;;;6.64;100.00;97968.27;1677600;84;21013;-76
2022/10/03 00:08:37;;;;;;;2.58;1.85;;;;;;;6.66;100.00;97969.04;1698804;84;20607;-77
2022/10/03 00:11:32;;;;;;;2.30;2.10;;;;;;;6.66;100.00;97959.05;1698633;84;21033;-76
2022/10/03 00:14:21;;;;;;;2.22;1.92;;;;;;;6.67;100.00;97969.88;1698732;84;21038;-77
2022/10/03 00:16:59;;;;;;;2.00;1.90;;;;;;;6.67;100.00;97960.30;1698486;84;21151;-77
2022/10/03 00:19:58;;;;;;;2.62;2.40;;;;;;;6.66;100.00;97948.13;1698948;84;21121;-77
2022/10/03 00:22:32;;;;;;;3.60;2.45;;;;;;;6.69;100.00;97955.84;1698436;84;21085;-77
2022/10/03 00:25:06;;;;;;;2.67;2.20;;;;;;;6.72;100.00;97955.31;1698694;84;21038;-77
2022/10/03 00:27:40;;;;;;;2.65;2.55;;;;;;;6.72;100.00;97943.55;1698092;84;21421;-78
2022/10/03 00:30:17;;;;;;;2.35;2.22;;;;;;;6.73;100.00;97984.47;1698970;84;21041;-76
2022/10/03 00:33:29;;;;;;;3.10;2.80;;;;;;;6.75;100.00;97959.10;1697324;84;22067;-75
2022/10/03 00:36:19;;;;;;;2.70;2.50;;;;;;;6.75;100.00;97943.42;1696735;84;21061;-76
2022/10/03 00:38:58;;;;;;;2.92;2.70;;;;;;;6.76;100.00;97940.73;1680860;84;21541;-76
2022/10/03 00:41:33;;;;;;;3.05;2.77;;;;;;;6.77;100.00;97944.19;1696940;84;21793;-76
2022/10/03 00:44:30;;;;;;;5.40;2.67;;;;;;;6.77;100.00;97938.97;1696027;84;21130;-77
2022/10/03 00:47:31;;;;;;;3.10;2.90;;;;;;;6.78;100.00;97941.98;1696699;84;21141;-76
2022/10/03 00:50:27;;;;;;;3.87;2.90;;;;;;;6.79;100.00;97942.35;1696637;84;21117;-75
2022/10/03 00:53:23;;;;;;;2.92;2.70;;;;;;;6.80;100.00;97950.59;1696623;84;21006;-74
2022/10/03 00:56:20;;;;;;;5.50;3.15;;;;;;;6.80;100.00;97940.14;1696651;84;22290;-75
2022/10/03 00:59:10;;;;;;;3.10;2.80;;;;;;;6.78;100.00;97940.67;1696621;84;21078;-77
2022/10/03 01:01:44;;;;;;;8.00;3.27;;;;;;;6.77;100.00;97931.96;1695773;84;21101;-76
2022/10/03 01:04:45;;;;;;;3.70;3.00;;;;;;;6.77;100.00;97929.81;1697020;84;21501;-76
2022/10/03 01:07:34;;;;;;;3.37;3.05;;;;;;;6.76;100.00;97932.02;1696571;83;21580;-76
2022/10/03 01:10:21;;;;;;;3.52;3.08;;;;;;;6.77;100.00;97935.05;1696918;84;21682;-77
2022/10/03 01:13:23;;;;;;;3.35;2.70;;;;;;;6.76;100.00;97925.05;1696705;84;20996;-76
2022/10/03 01:16:26;;;;;;;2.92;2.70;;;;;;;6.79;100.00;97924.05;1696766;84;21672;-77
2022/10/03 01:19:27;;;;;;;4.55;2.90;;;;;;;6.80;100.00;97929.69;1689263;84;21030;-77
2022/10/03 01:22:29;;;;;;;5.67;3.22;;;;;;;6.81;100.00;97931.39;1696705;84;21087;-76
2022/10/03 01:25:01;;;;;;;3.40;2.92;;;;;;;6.82;100.00;97923.92;1695539;84;21122;-77
2022/10/03 01:30:21;;;;;;;2.98;2.77;;;;;;;6.80;100.00;97929.22;1696567;84;21062;-77
2022/10/03 01:30:23;;;;;;;3.08;2.90;;;;;;;6.82;100.00;97923.45;1695016;84;21576;-76
2022/10/03 01:33:09;;;;;;;3.12;2.85;;;;;;;6.83;100.00;97930.86;1697533;84;21085;-76
2022/10/03 01:36:01;;;;;;;3.10;2.90;;;;;;;6.83;100.00;97925.63;1698429;84;21721;-76
2022/10/03 01:38:48;;;;;;;3.05;2.80;;;;;;;6.85;100.00;97929.02;1698576;84;21533;-76
2022/10/03 01:41:51;;;;;;;3.60;3.33;;;;;;;6.86;100.00;97931.56;1693694;84;21034;-76
2022/10/03 01:44:25;;;;;;;6.00;3.20;;;;;;;6.86;100.00;97928.95;1660244;85;21012;-75
2022/10/03 01:47:17;;;;;;;3.25;2.87;;;;;;;6.87;100.00;97939.78;1693153;84;21570;-77
2022/10/03 01:50:01;;;;;;;3.05;2.58;;;;;;;6.88;100.00;97930.19;1698670;84;21132;-75
2022/10/03 01:52:51;;;;;;;3.25;2.95;;;;;;;6.90;100.00;97932.27;1698536;84;21132;-77
2022/10/03 01:55:50;;;;;;;7.47;3.20;;;;;;;6.91;100.00;97939.64;1683007;84;21010;-74
2022/10/03 01:58:53;;;;;;;3.37;2.92;;;;;;;6.91;100.00;97923.52;1698691;84;21045;-77
2022/10/03 02:01:25;;;;;;;3.20;3.00;;;;;;;6.92;100.00;97929.59;1698634;84;21552;-76
2022/10/03 02:04:17;;;;;;;3.42;3.15;;;;;;;6.92;100.00;97920.44;1698596;84;21537;-76
2022/10/03 02:07:23;;;;;;;4.15;3.45;;;;;;;6.93;100.00;97924.30;1698318;84;21895;-76
2022/10/03 02:10:07;;;;;;;4.55;3.17;;;;;;;6.93;100.00;97926.07;1698367;84;20954;-76
2022/10/03 02:12:44;;;;;;;3.70;3.40;;;;;;;6.94;100.00;97933.81;1698416;84;21129;-76
2022/10/03 02:15:19;;;;;;;3.10;2.90;;;;;;;6.94;100.00;97927.75;1687163;84;21121;-76
2022/10/03 02:18:17;;;;;;;3.87;3.20;;;;;;;6.93;100.00;97926.91;1698595;84;21023;-77
2022/10/03 02:20:52;;;;;;;3.62;3.33;;;;;;;6.93;100.00;97920.37;1698626;84;21510;-77
2022/10/03 02:23:37;;;;;;;3.47;3.17;;;;;;;6.93;100.00;97922.98;1698896;84;21708;-74
2022/10/03 02:26:52;;;;;;;3.42;3.12;;;;;;;6.95;100.00;97918.53;1698537;84;21046;-76
2022/10/03 02:29:51;;;;;;;3.40;3.20;;;;;;;6.95;100.00;97919.84;1698638;84;20977;-76
2022/10/03 02:33:06;;;;;;;3.47;3.25;;;;;;;6.95;100.00;97918.53;1698527;84;21109;-77
2022/10/03 02:35:55;;;;;;;6.37;3.20;;;;;;;6.93;100.00;97921.68;1680945;85;21572;-76
2022/10/03 02:38:38;;;;;;;3.52;3.33;;;;;;;6.92;100.00;97922.58;1681138;84;21074;-76
2022/10/03 02:41:19;;;;;;;3.35;3.10;;;;;;;6.93;100.00;97920.37;1681633;84;21666;-76
2022/10/03 02:44:33;;;;;;;3.02;2.80;;;;;;;6.93;100.00;97915.14;1681524;85;21059;-77
2022/10/03 02:47:34;;;;;;;3.17;2.90;;;;;;;6.93;100.00;97919.53;1656172;85;21163;-77
2022/10/03 02:50:28;;;;;;;3.90;3.42;;;;;;;6.93;100.00;97908.61;1681416;84;21240;-76
2022/10/03 02:53:36;;;;;;;3.42;3.12;;;;;;;6.96;100.00;97932.00;1681293;85;21042;-77
2022/10/03 02:56:20;;;;;;;3.45;2.95;;;;;;;6.94;100.00;97915.52;1681718;84;21141;-76
2022/10/03 02:59:29;;;;;;;3.20;3.00;;;;;;;6.95;100.00;97917.22;1681453;85;21161;-76
2022/10/03 03:02:27;;;;;;;3.33;3.02;;;;;;;6.96;100.00;97918.06;1681412;84;21173;-76
2022/10/03 03:05:14;;;;;;;2.80;2.60;;;;;;;6.95;100.00;97905.92;1681272;85;21818;-75
2022/10/03 03:08:21;;;;;;;2.85;2.65;;;;;;;6.95;100.00;97911.99;1681382;85;21075;-76
2022/10/03 03:11:25;;;;;;;5.75;2.90;;;;;;;6.96;100.00;97901.94;1681075;85;21526;-76
2022/10/03 03:14:12;;;;;;;2.95;2.67;;;;;;;6.96;100.00;97913.70;1681107;85;21554;-76
2022/10/03 03:17:14;;;;;;;2.65;2.45;;;;;;;6.97;100.00;97914.54;1666315;85;22106;-75
2022/10/03 03:20:03;;;;;;;2.58;2.37;;;;;;;6.96;100.00;97918.93;1681367;85;21141;-77
2022/10/03 03:22:36;;;;;;;2.95;2.65;;;;;;;6.97;100.00;97908.00;1681190;85;21035;-76
2022/10/03 03:25:20;;;;;;;3.25;2.95;;;;;;;6.96;100.00;97899.76;1681359;84;21125;-76
2022/10/03 03:28:21;;;;;;;4.83;2.80;;;;;;;6.94;100.00;97902.44;1681238;85;21031;-76
2022/10/03 03:31:08;;;;;;;3.65;3.35;;;;;;;6.93;100.00;97895.53;1681652;85;21047;-76
2022/10/03 03:34:01;;;;;;;3.62;3.33;;;;;;;6.90;100.00;97906.13;1681245;85;21291;-75
2022/10/03 03:36:40;;;;;;;3.22;2.77;;;;;;;6.89;100.00;97901.80;1696341;84;21076;-77
2022/10/03 03:39:43;;;;;;;3.08;2.83;;;;;;;6.88;100.00;97904.05;1696676;84;21517;-76
2022/10/03 03:42:23;;;;;;;3.05;2.87;;;;;;;6.86;100.00;97895.44;1696509;84;21086;-76
2022/10/03 03:45:10;;;;;;;2.90;2.70;;;;;;;6.86;100.00;97894.12;1696645;84;21536;-75
2022/10/03 03:47:45;;;;;;;3.40;3.20;;;;;;;6.85;100.00;97898.48;1696636;84;21569;-77
2022/10/03 03:50:38;;;;;;;3.55;3.17;;;;;;;6.85;100.00;97908.10;1696476;84;21108;-76
2022/10/03 03:53:33;;;;;;;3.92;3.35;;;;;;;6.83;100.00;97905.55;1696743;84;21129;-76
2022/10/03 03:56:15;;;;;;;5.05;3.10;;;;;;;6.82;100.00;97906.93;1696609;84;20987;-76
2022/10/03 03:59:12;;;;;;;3.33;3.02;;;;;;;6.75;100.00;97885.91;1696548;84;20995;-76
2022/10/03 04:02:05;;;;;;;3.98;3.00;;;;;;;6.75;100.00;97902.44;1696769;84;21138;-76
2022/10/03 04:04:56;;;;;;;5.75;3.30;;;;;;;6.73;100.00;97902.97;1696395;84;21466;-76
2022/10/03 04:07:48;;;;;;;3.83;3.42;;;;;;;6.72;100.00;97900.42;1696568;84;21026;-76
2022/10/03 04:10:37;;;;;;;3.60;3.40;;;;;;;6.69;100.00;97911.41;1696983;84;21132;-76
2022/10/03 04:13:30;;;;;;;4.67;3.52;;;;;;;6.66;100.00;97903.70;1696496;84;21042;-75
2022/10/03 04:19:23;;;;;;;8.95;4.95;;;;;;;6.64;100.00;97916.00;1696454;84;21057;-75
2022/10/03 04:22:33;;;;;;;9.08;5.37;;;;;;;6.64;100.00;97905.98;1696509;84;21759;-74
2022/10/03 04:25:25;;;;;;;6.60;4.00;;;;;;;6.62;100.00;97904.77;1696776;84;21945;-75
2022/10/03 04:28:27;;;;;;;3.80;3.50;;;;;;;6.63;100.00;97899.91;1696887;84;21125;-75
2022/10/03 04:31:09;;;;;;;4.17;3.80;;;;;;;6.63;100.00;97903.83;1696438;84;21205;-76
2022/10/03 04:33:59;;;;;;;3.30;3.10;;;;;;;6.64;100.00;97899.02;1696605;84;21497;-76
2022/10/03 04:36:52;;;;;;;3.20;3.00;;;;;;;6.66;100.00;97893.72;1698002;84;21632;-76
2022/10/03 04:39:53;;;;;;;3.25;2.80;;;;;;;6.66;100.00;97897.64;1697918;84;21038;-77
2022/10/03 04:42:39;;;;;;;6.47;3.10;;;;;;;6.66;100.00;97894.55;1698597;84;21014;-75
2022/10/03 04:45:38;;;;;;;3.12;2.92;;;;;;;6.67;100.00;97892.34;1698645;84;21129;-76
2022/10/03 04:48:18;;;;;;;2.90;2.70;;;;;;;6.67;100.00;97896.70;1698670;84;21655;-77
2022/10/03 04:51:19;;;;;;;3.05;2.85;;;;;;;6.67;100.00;97887.12;1698661;84;21124;-76
2022/10/03 04:54:14;;;;;;;2.87;2.67;;;;;;;6.68;100.00;97888.80;1698514;84;20971;-75
2022/10/03 04:56:49;;;;;;;3.70;3.40;;;;;;;6.70;100.00;97886.95;1699111;84;21046;-77
2022/10/03 04:59:39;;;;;;;;;;;;;;;6.70;100.00;97889.56;1701254;84;22481;-75
2022/10/03 05:02:34;;;;;;;2.72;2.62;;;;;;;6.73;100.00;97883.84;1698772;84;20234;-76
2022/10/03 05:05:35;;;;;;;3.30;3.10;;;;;;;6.75;100.00;97871.07;1698780;84;22072;-74
2022/10/03 05:08:19;;;;;;;3.52;3.17;;;;;;;6.78;100.00;97870.09;1698986;84;21092;-76
2022/10/03 05:11:26;;;;;;;3.10;2.85;;;;;;;6.81;100.00;97856.89;1685318;83;21146;-76
2022/10/03 05:14:07;;;;;;;3.72;3.42;;;;;;;6.84;100.00;97869.80;1698695;84;21555;-75
2022/10/03 05:17:22;;;;;;;3.22;2.98;;;;;;;6.89;100.00;97861.28;1698330;84;21085;-76
2022/10/03 05:20:04;;;;;;;4.03;3.67;;;;;;;6.95;100.00;97864.92;1698450;84;21573;-76
2022/10/03 05:23:00;;;;;;;5.12;3.92;;;;;;;7.00;100.00;97861.64;1677764;84;21494;-76
2022/10/03 05:25:47;;;;;;;5.20;4.00;;;;;;;7.04;100.00;97854.49;1698602;84;21073;-76
2022/10/03 05:28:58;;;;;;;4.97;4.53;;;;;;;7.11;100.00;97864.20;1698572;84;21220;-76
2022/10/03 05:32:08;;;;;;;5.92;4.80;;;;;;;7.18;100.00;97870.87;1698597;84;21105;-76
2022/10/03 05:35:04;;;;;;;9.13;6.17;;;;;;;7.27;100.00;97870.88;1698424;84;21156;-77
2022/10/03 05:38:14;;;;;;;6.72;5.20;;;;;;;7.33;100.00;97859.66;1698486;84;21027;-76
2022/10/03 05:41:05;;;;;;;5.30;4.12;;;;;;;7.42;100.00;97857.90;1698377;84;21050;-77
2022/10/03 05:44:01;;;;;;;8.95;5.15;;;;;;;7.55;100.00;97859.94;1687776;85;21149;-78
2022/10/03 05:47:03;;;;;;;5.30;3.58;;;;;;;7.69;100.00;97853.55;1668032;85;21148;-75
2022/10/03 05:50:09;;;;;;;6.20;3.55;;;;;;;7.86;100.00;97858.41;1692213;84;21030;-77
2022/10/03 05:52:42;;;;;;;4.45;2.98;;;;;;;8.07;100.00;97856.02;1691653;84;21050;-76
2022/10/03 05:55:50;;;;;;;4.62;3.05;;;;;;;8.24;100.00;97854.28;1691805;84;21113;-77
2022/10/03 05:58:55;;;;;;;8.48;3.30;;;;;;;8.39;100.00;97856.12;1692034;84;22213;-76
2022/10/03 06:02:09;;;;;;;4.80;2.92;;;;;;;8.49;100.00;97858.68;1691941;84;21056;-77
2022/10/03 06:05:13;;;;;;;6.62;2.87;;;;;;;8.62;100.00;97867.19;1691887;84;21624;-77
2022/10/03 06:08:03;;;;;;;9.58;2.67;;;;;;;8.70;100.00;97854.53;1691379;84;21094;-77
2022/10/03 06:10:44;;;;;;;4.58;2.58;;;;;;;8.78;100.00;97870.70;1691519;84;21096;-76
2022/10/03 06:13:50;;;;;;;10.70;3.40;;;;;;;8.84;100.00;97865.13;1692021;84;21114;-76
2022/10/03 06:17:01;;;;;;;4.37;2.60;;;;;;;8.89;100.00;97868.35;1692065;84;21078;-77
2022/10/03 06:19:55;;;;;;;6.10;2.92;;;;;;;8.97;100.00;97878.41;1692090;84;21011;-77
2022/10/03 06:23:03;;;;;;;3.90;2.40;;;;;;;9.03;100.00;97885.95;1691164;84;21110;-76
2022/10/03 06:25:54;;;;;;;6.62;2.30;;;;;;;9.09;100.00;97872.95;1690934;84;21404;-78
2022/10/03 06:28:52;;;;;;;6.08;2.22;;;;;;;9.15;100.00;97871.31;1689020;84;21964;-77
2022/10/03 06:31:42;;;;;;;7.83;2.60;;;;;;;9.23;100.00;97867.80;1691793;84;21077;-77
2022/10/03 06:34:41;;;;;;;6.75;2.35;;;;;;;9.30;100.00;97874.87;1691143;84;21157;-77
2022/10/03 06:37:33;;;;;;;5.50;1.82;;;;;;;9.34;100.00;97891.29;1682286;84;21027;-76
2022/10/03 06:40:33;;;;;;;6.37;1.90;;;;;;;9.43;100.00;97892.08;1696873;84;21084;-76
2022/10/03 06:43:39;;;;;;;4.80;1.75;;;;;;;9.48;100.00;97876.91;1696510;84;21299;-77
2022/10/03 06:46:38;;;;;;;3.80;1.60;;;;;;;9.51;98.15;97904.31;1678712;84;21696;-77
2022/10/03 06:49:40;;;;;;;3.98;1.90;;;;;;;9.54;97.22;97921.20;1696233;84;21026;-75
2022/10/03 06:52:53;;;;;;;4.35;2.12;;;;;;;9.55;96.45;97897.97;1696369;84;21054;-76
2022/10/03 06:56:13;;;;;;;9.48;2.30;;;;;;;9.58;95.91;97895.17;1696462;84;21073;-75
2022/10/03 06:59:19;;;;;;;2.65;1.55;;;;;;;9.58;95.05;97935.87;1696522;84;21684;-77
2022/10/03 07:02:14;;;;;;;3.90;1.95;;;;;;;9.59;94.22;97909.98;1696253;84;21081;-76
2022/10/03 07:05:08;;;;;;;8.68;2.00;;;;;;;9.64;93.67;97914.50;1696847;84;21086;-76
2022/10/03 07:08:04;;;;;;;3.45;1.47;;;;;;;9.69;94.05;97909.47;1696504;84;21081;-76
2022/10/03 07:10:52;;;;;;;8.10;1.90;;;;;;;9.73;94.02;97921.48;1696823;84;21076;-75
2022/10/03 07:13:38;;;;;;;2.80;1.57;;;;;;;9.77;93.36;97913.83;1692135;84;21616;-76
2022/10/03 07:16:53;;;;;;;4.03;1.60;;;;;;;9.79;94.23;97917.20;1696650;84;21101;-77
2022/10/03 07:19:56;;;;;;;5.67;1.98;;;;;;;9.81;93.04;97925.36;1685134;84;21065;-78
2022/10/03 07:23:12;;;;;;;10.18;2.67;;;;;;;9.81;92.90;97929.78;1697210;84;21921;-76
2022/10/03 07:26:22;;;;;;;4.85;1.65;;;;;;;9.83;92.81;97918.70;1676576;84;21126;-77
2022/10/03 07:29:06;;;;;;;5.55;1.77;;;;;;;9.81;92.25;97943.75;1695497;84;21272;-76
2022/10/03 07:31:40;;;;;;;11.15;2.52;;;;;;;9.83;92.34;97933.16;1696679;84;20999;-76
2022/10/03 07:34:48;;;;;;;5.22;2.02;;;;;;;9.82;92.60;97922.29;1696620;83;21121;-77
2022/10/03 07:40:54;;;;;;;4.45;1.72;;;;;;;9.85;92.65;97927.34;1698693;84;21077;-77
2022/10/03 07:43:50;;;;;;;8.75;2.90;;;;;;;9.86;92.42;97935.61;1688389;84;21149;-77
2022/10/03 07:47:00;;;;;;;5.12;2.35;;;;;;;9.90;92.37;97921.83;1698610;84;21494;-77
2022/10/03 07:49:54;;;;;;;6.60;2.55;;;;;;;9.94;92.05;97920.73;1698526;84;21030;-74
2022/10/03 07:52:53;;;;;;;4.70;2.10;;;;;;;10.01;92.47;97920.28;1699058;84;21117;-77
2022/10/03 07:55:44;;;;;;;7.00;1.90;;;;;;;10.09;91.96;97938.72;1698598;84;21066;-75
2022/10/03 07:58:53;;;;;;;7.92;2.55;;;;;;;10.14;91.88;97922.21;1698913;84;21557;-76
2022/10/03 08:01:28;;;;;;;5.85;2.33;;;;;;;10.16;91.61;97915.08;1698185;84;21058;-76
2022/10/03 08:04:29;;;;;;;3.10;1.98;;;;;;;10.17;91.76;97920.69;1698467;84;21034;-75
2022/10/03 08:07:25;;;;;;;6.60;2.50;;;;;;;10.16;91.70;97924.28;1698575;84;21564;-76
2022/10/03 08:10:12;;;;;;;9.30;2.00;;;;;;;10.16;91.86;97913.77;1698716;84;21114;-75
2022/10/03 08:12:54;;;;;;;3.55;1.98;;;;;;;10.19;91.68;97918.84;1698547;84;21497;-76
2022/10/03 08:15:44;;;;;;;4.20;1.95;;;;;;;10.22;90.98;97916.02;1698595;84;21081;-75
2022/10/03 08:18:34;;;;;;;5.97;1.90;;;;;;;10.27;90.42;97912.67;1698446;84;21584;-76
2022/10/03 08:21:02;;;;;;;3.35;1.60;;;;;;;10.32;90.39;97913.72;1698639;84;21589;-77
2022/10/03 08:24:08;;;;;;;6.72;2.47;;;;;;;10.38;90.05;97919.46;1698513;84;21088;-75
2022/10/03 08:27:12;;;;;;;2.70;1.85;;;;;;;10.43;87.82;97917.05;1698587;84;21164;-75
2022/10/03 08:30:04;;;;;;;5.03;2.00;;;;;;;10.47;86.66;97923.32;1681085;84;21113;-75
2022/10/03 08:33:13;;;;;;;3.45;1.87;;;;;;;10.53;86.96;97916.88;1698655;84;21537;-76
2022/10/03 08:36:22;;;;;;;3.77;2.10;;;;;;;10.58;86.87;97926.16;1677815;84;21069;-76
2022/10/03 08:39:03;;;;;;;9.55;2.15;;;;;;;10.61;86.63;97934.36;1696655;84;21973;-77
2022/10/03 08:42:22;;;;;;;5.75;1.72;;;;;;;10.62;85.17;97938.66;1696757;84;21200;-77
2022/10/03 08:44:57;;;;;;;6.00;1.98;;;;;;;10.66;84.34;97939.31;1696659;84;21663;-76
2022/10/03 08:47:53;;;;;;;;;;;;;;;10.70;83.52;97940.36;1699209;84;21130;-76
2022/10/03 08:50:49;;;;;;;3.12;1.70;;;;;;;10.75;83.33;97936.14;1695530;84;20171;-76
2022/10/03 08:53:30;;;;;;;3.20;1.87;;;;;;;10.80;83.01;97939.34;1696220;84;21089;-76
2022/10/03 08:56:10;;;;;;;3.75;2.08;;;;;;;10.82;82.56;97937.93;1696669;84;21146;-75
2022/10/03 08:59:00;;;;;;;10.70;2.05;;;;;;;10.81;81.90;97936.23;1696560;84;21070;-75
2022/10/03 09:02:03;;;;;;;4.60;1.90;;;;;;;10.79;82.72;97946.84;1696594;84;21515;-76
2022/10/03 09:04:56;;;;;;;6.03;1.95;;;;;;;10.78;82.38;97935.48;1696696;84;21581;-75
2022/10/03 09:07:47;;;;;;;2.08;1.80;;;;;;;10.76;83.04;97955.78;1696384;84;21019;-76
2022/10/03 09:10:54;;;;;;;3.70;1.67;;;;;;;10.73;82.32;97970.43;1696603;84;21538;-75
2022/10/03 09:13:49;;;;;;;5.40;2.12;;;;;;;10.73;81.71;97944.13;1696397;84;21065;-76
2022/10/03 09:16:38;;;;;;;7.90;2.20;;;;;;;10.78;81.61;97946.01;1696946;84;21128;-76
2022/10/03 09:19:51;;;;;;;6.03;2.15;;;;;;;10.85;82.04;97933.80;1696637;84;21094;-75
2022/10/03 09:22:35;;;;;;;2.00;1.80;;;;;;;10.95;81.02;97938.88;1696087;84;22107;-76
2022/10/03 09:25:33;;;;;;;3.55;2.08;;;;;;;11.04;80.33;97964.61;1696507;84;22313;-76
2022/10/03 09:28:25;;;;;;;3.92;1.98;;;;;;;11.11;78.62;97952.79;1696818;84;21454;-75
2022/10/03 09:31:03;;;;;;;5.65;2.10;;;;;;;11.15;78.46;97949.49;1696699;84;21093;-76
2022/10/03 09:33:56;;;;;;;2.92;2.35;;;;;;;11.17;79.37;97944.13;1690933;84;21125;-75
2022/10/03 09:37:12;;;;;;;3.58;2.10;;;;;;;11.23;79.70;97949.00;1693212;84;21077;-76
2022/10/03 09:40:24;;;;;;;4.50;2.10;;;;;;;11.31;78.45;97954.19;1681176;85;21429;-75
2022/10/03 09:43:27;;;;;;;3.70;2.12;;;;;;;11.37;77.64;97947.67;1680972;85;21094;-78
2022/10/03 09:46:23;;;;;;;4.17;1.67;;;;;;;11.41;78.17;97950.47;1681363;85;21086;-77
2022/10/03 09:49:16;;;;;;;3.85;2.08;;;;;;;11.44;77.60;97956.87;1667588;85;21502;-77
2022/10/03 09:52:09;;;;;;;3.80;2.02;;;;;;;11.44;77.20;97981.89;1681296;84;21011;-75
2022/10/03 09:54:59;;;;;;;5.20;2.10;;;;;;;11.46;76.80;97949.70;1681410;85;21661;-76
2022/10/03 09:58:07;;;;;;;5.45;1.80;;;;;;;11.51;78.32;97944.16;1680931;85;21565;-75
2022/10/03 10:00:58;;;;;;;5.67;2.42;;;;;;;11.63;77.53;97947.80;1680872;85;22169;-76
2022/10/03 10:03:48;;;;;;;3.65;2.02;;;;;;;11.84;76.40;97942.47;1657239;86;21020;-75
2022/10/03 10:06:59;;;;;;;6.58;2.50;;;;;;;11.98;74.52;97952.61;1680824;85;21054;-76
2022/10/03 10:09:47;;;;;;;3.30;1.87;;;;;;;12.01;74.00;97943.19;1681463;85;21117;-75
2022/10/03 10:13:00;;;;;;;5.67;2.25;;;;;;;12.07;73.45;97955.98;1681078;85;21121;-76
2022/10/03 10:16:08;;;;;;;7.47;2.90;;;;;;;12.14;72.72;97963.84;1657241;86;21155;-78
2022/10/03 10:19:08;;;;;;;15.30;2.08;;;;;;;12.23;74.06;97960.59;1648766;85;21384;-77
2022/10/03 10:21:57;;;;;;;4.67;1.98;;;;;;;12.33;72.94;97960.83;1677699;85;21030;-78
2022/10/03 10:24:49;;;;;;;5.67;2.25;;;;;;;12.35;70.34;97964.69;1681274;85;21933;-76
2022/10/03 10:27:58;;;;;;;3.02;1.67;;;;;;;12.32;69.99;97964.88;1681383;84;21082;-77
2022/10/03 10:30:53;;;;;;;4.85;2.10;;;;;;;12.26;70.29;97959.07;1681264;85;21174;-76
2022/10/03 10:33:52;;;;;;;5.97;1.92;;;;;;;12.24;71.72;97959.66;1681372;85;22056;-75
2022/10/03 10:37:03;;;;;;;3.72;1.55;;;;;;;12.21;70.21;97959.85;1681909;84;21011;-76
2022/10/03 10:40:15;;;;;;;4.10;1.77;;;;;;;12.18;70.33;97962.69;1696643;84;21148;-76
2022/10/03 10:43:05;;;;;;;5.40;1.60;;;;;;;12.15;70.50;97960.73;1696741;84;21062;-76
2022/10/03 10:45:40;;;;;;;2.27;1.47;;;;;;;12.06;70.19;97966.14;1696826;84;21196;-76
2022/10/03 10:48:32;;;;;;;10.98;1.85;;;;;;;11.95;70.93;97964.67;1696603;84;21640;-76
2022/10/03 10:51:20;;;;;;;4.12;2.15;;;;;;;11.89;71.88;97968.53;1696907;84;21640;-77
2022/10/03 10:54:43;;;;;;;4.87;1.55;;;;;;;11.84;72.53;97966.18;1696491;84;22281;-75
2022/10/03 10:57:50;;;;;;;4.12;1.32;;;;;;;11.86;72.58;97971.36;1696797;84;21718;-75
2022/10/03 11:00:47;;;;;;;2.25;1.40;;;;;;;11.98;71.38;97976.34;1695420;84;21084;-76
2022/10/03 11:03:49;;;;;;;2.58;1.80;;;;;;;12.03;71.47;97969.80;1696814;84;21619;-77
2022/10/03 11:06:58;;;;;;;5.58;1.60;;;;;;;12.08;71.65;97980.89;1696108;84;21603;-77
2022/10/03 11:10:01;;;;;;;4.90;1.50;;;;;;;12.10;71.96;97965.46;1696644;84;21043;-76
2022/10/03 11:13:17;;;;;;;3.90;2.17;;;;;;;12.07;74.29;97975.75;1696510;84;21018;-77
2022/10/03 11:15:59;;;;;;;;;;;;;;;12.02;75.46;97987.91;1699265;84;21540;-76
2022/10/03 11:19:06;;;;;;;4.03;1.57;;;;;;;12.06;76.83;97980.64;1696679;84;20217;-76
2022/10/03 11:21:50;;;;;;;6.80;4.00;;;;;;;12.17;76.50;97976.84;1697016;84;21042;-78
2022/10/03 11:25:02;;;;;;;10.37;4.70;;;;;;;12.25;75.85;97996.95;1696825;84;21588;-76
2022/10/03 11:27:34;;;;;;;7.87;2.77;;;;;;;12.18;75.10;97971.91;1696561;84;21026;-76
2022/10/03 11:30:12;;;;;;;4.30;2.02;;;;;;;12.09;74.59;97977.81;1696200;84;20991;-77
2022/10/03 11:33:14;;;;;;;5.10;2.90;;;;;;;12.04;75.75;97991.77;1696683;84;21069;-75
2022/10/03 11:36:06;;;;;;;5.12;1.60;;;;;;;12.02;76.13;97959.36;1696908;84;21459;-75
2022/10/03 11:38:39;;;;;;;2.40;1.80;;;;;;;11.84;78.97;97998.28;1683439;83;21807;-74
2022/10/03 11:41:46;;;;;;;3.25;1.90;;;;;;;11.50;85.97;98003.91;1681257;84;21625;-75
2022/10/03 11:44:29;;;;;;;7.90;3.85;;;;;;;11.31;86.52;97982.28;1681586;84;21150;-76
2022/10/03 11:47:35;;;;;;;6.83;2.08;;;;;;;11.28;88.83;97981.15;1681099;84;21574;-76
2022/10/03 11:50:19;;;;;;;3.58;2.33;;;;;;;11.28;87.14;97990.36;1681692;85;20970;-75
2022/10/03 11:52:54;;;;;;;5.37;1.57;;;;;;;11.30;83.97;97981.92;1681324;85;21159;-76
2022/10/03 11:55:32;;;;;;;2.62;1.57;;;;;;;11.30;82.74;97983.23;1681159;85;21098;-76
2022/10/03 11:58:51;;;;;;;2.30;1.67;;;;;;;11.26;81.24;97997.52;1681150;84;21578;-75
2022/10/03 12:02:04;;;;;;;2.75;2.02;;;;;;;11.24;82.64;97991.51;1681197;85;21078;-75
2022/10/03 12:04:52;;;;;;;4.53;1.67;;;;;;;11.21;82.36;97996.48;1681254;85;21067;-74
2022/10/03 12:10:46;;;;;;;3.37;1.70;;;;;;;11.17;83.54;98000.73;1681466;85;21082;-76
2022/10/03 12:13:19;;;;;;;3.25;1.90;;;;;;;11.22;83.49;97998.18;1681319;85;21070;-75
2022/10/03 12:15:53;;;;;;;3.35;1.55;;;;;;;11.31;83.72;97992.81;1681060;85;21086;-76
2022/10/03 12:18:44;;;;;;;6.58;1.90;;;;;;;11.38;82.87;97983.61;1681607;85;21739;-78
2022/10/03 12:21:14;;;;;;;5.85;1.85;;;;;;;11.46;81.96;97991.84;1681227;85;21178;-76
2022/10/03 12:24:04;;;;;;;4.53;1.60;;;;;;;11.49;78.98;97982.44;1681595;85;21543;-75
2022/10/03 12:26:52;;;;;;;4.55;2.30;;;;;;;11.58;78.41;97977.54;1681267;84;21098;-76
2022/10/03 12:29:20;;;;;;;3.45;1.80;;;;;;;11.68;78.52;97987.86;1681303;85;21095;-77
2022/10/03 12:32:16;;;;;;;6.22;1.60;;;;;;;11.77;77.61;97981.16;1681114;85;21575;-76
2022/10/03 12:34:51;;;;;;;3.60;2.42;;;;;;;11.80;75.33;97984.47;1681540;85;21130;-77
2022/10/03 12:37:29;;;;;;;2.65;1.42;;;;;;;11.81;75.59;97980.87;1654238;83;22252;-76
2022/10/03 12:40:19;;;;;;;3.65;1.77;;;;;;;11.80;74.21;97996.33;1698585;84;21088;-78
2022/10/03 12:43:29;;;;;;;7.85;2.50;;;;;;;11.78;75.08;98007.41;1698555;84;21039;-76
2022/10/03 12:46:19;;;;;;;9.15;4.30;;;;;;;11.72;77.21;98002.55;1698356;84;21046;-76
2022/10/03 12:49:09;;;;;;;5.40;3.45;;;;;;;11.67;78.31;98002.00;1690727;84;22275;-76
2022/10/03 12:51:57;;;;;;;8.15;2.47;;;;;;;11.61;77.47;97997.11;1697397;84;21049;-77
2022/10/03 12:55:09;;;;;;;3.90;1.52;;;;;;;11.59;77.33;97997.69;1685462;84;21148;-76
2022/10/03 12:58:13;;;;;;;4.20;1.80;;;;;;;11.59;76.51;97987.14;1653155;86;21113;-77
2022/10/03 13:01:23;;;;;;;10.35;2.80;;;;;;;11.63;75.61;97985.55;1626304;86;21647;-77
2022/10/03 13:04:17;;;;;;;4.25;2.50;;;;;;;11.72;74.49;97990.70;1698460;84;21141;-74
2022/10/03 13:07:20;;;;;;;4.72;2.27;;;;;;;11.83;73.72;97978.97;1698433;84;21710;-75
2022/10/03 13:09:58;;;;;;;4.58;2.45;;;;;;;11.93;72.32;97989.80;1698179;84;20998;-75
2022/10/03 13:12:49;;;;;;;3.08;1.87;;;;;;;11.98;72.28;97981.13;1698662;84;21039;-74
2022/10/03 13:15:43;;;;;;;6.05;3.15;;;;;;;11.99;72.36;97991.22;1696102;84;21084;-76
2022/10/03 13:18:35;;;;;;;7.70;2.70;;;;;;;11.98;72.35;97989.52;1698832;84;21798;-78
2022/10/03 13:21:18;;;;;;;4.47;1.80;;;;;;;11.95;73.29;97985.75;1698867;84;21065;-75
2022/10/03 13:23:59;;;;;;;6.65;1.98;;;;;;;11.89;72.76;97986.49;1659993;86;21050;-76
2022/10/03 13:26:59;;;;;;;2.40;1.40;;;;;;;11.86;73.14;97985.85;1659773;84;22051;-74
2022/10/03 13:29:37;;;;;;;5.55;1.70;;;;;;;11.78;80.10;98003.45;1691949;84;21085;-73
2022/10/03 13:32:34;;;;;;;2.58;1.47;;;;;;;11.48;88.45;98002.29;1693918;84;21168;-74
2022/10/03 13:38:36;;;;;;;4.08;1.80;;;;;;;11.12;89.16;98004.95;1697668;84;21427;-75
2022/10/03 13:41:41;;;;;;;2.60;2.10;;;;;;;11.09;86.32;97990.17;1696290;84;21120;-76
2022/10/03 13:44:27;;;;;;;4.33;1.90;;;;;;;11.17;85.35;98003.36;1696589;84;21157;-74
2022/10/03 13:47:26;;;;;;;2.37;2.17;;;;;;;11.28;84.48;97974.56;1694708;84;21116;-75
2022/10/03 13:50:01;;;;;;;1.77;1.40;;;;;;;11.45;83.74;97984.91;1696650;84;21073;-75